sensor_id;sensor_type;location;lat;lon;timestamp;pressure;altitude;pressure_sealevel;temperature;humidity
30110;BME280;14965;50.660;13.226;2022-08-19T00:00:30;94358.41;;;18.16;100.00
30110;BME280;14965;50.660;13.226;2022-08-19T00:02:58;94360.94;;;18.14;100.00
30110;BME280;14965;50.660;13.226;2022-08-19T00:05:24;94347.47;;;18.13;100.00
30110;BME280;14965;50.660;13.226;2022-08-19T00:07:50;94350.78;;;18.11;100.00
30110;BME280;14965;50.660;13.226;2022-08-19T00:10:17;94339.56;;;18.06;100.00
30110;BME280;14965;50.660;13.226;2022-08-19T00:12:43;94349.72;;;18.03;100.00
30110;BME280;14965;50.660;13.226;2022-08-19T00:15:15;94343.06;;;18.01;100.00
30110;BME280;14965;50.660;13.226;2022-08-19T00:17:43;94343.59;;;17.99;100.00
30110;BME280;14965;50.660;13.226;2022-08-19T00:20:16;94353.25;;;18.04;100.00
30110;BME280;14965;50.660;13.226;2022-08-19T00:22:45;94358.59;;;18.02;100.00
30110;BME280;14965;50.660;13.226;2022-08-19T00:25:11;94361.88;;;18.00;100.00
30110;BME280;14965;50.660;13.226;2022-08-19T00:27:37;94356.28;;;18.00;100.00
30110;BME280;14965;50.660;13.226;2022-08-19T00:30:06;94344.88;;;17.98;100.00
30110;BME280;14965;50.660;13.226;2022-08-19T00:32:32;94354.78;;;17.99;100.00
30110;BME280;14965;50.660;13.226;2022-08-19T00:34:58;94360.59;;;17.96;100.00
30110;BME280;14965;50.660;13.226;2022-08-19T00:37:26;94355.00;;;17.96;100.00
30110;BME280;14965;50.660;13.226;2022-08-19T00:39:53;94347.66;;;17.98;100.00
30110;BME280;14965;50.660;13.226;2022-08-19T00:42:21;94360.06;;;17.97;100.00
30110;BME280;14965;50.660;13.226;2022-08-19T00:44:47;94359.59;;;17.99;100.00
30110;BME280;14965;50.660;13.226;2022-08-19T00:47:13;94359.09;;;18.00;100.00
30110;BME280;14965;50.660;13.226;2022-08-19T00:49:44;94349.69;;;17.98;100.00
30110;BME280;14965;50.660;13.226;2022-08-19T00:52:17;94357.28;;;17.97;100.00
30110;BME280;14965;50.660;13.226;2022-08-19T00:54:46;94361.84;;;17.95;100.00
30110;BME280;14965;50.660;13.226;2022-08-19T00:57:17;94352.97;;;17.96;100.00
30110;BME280;14965;50.660;13.226;2022-08-19T00:59:48;94352.97;;;17.96;100.00
30110;BME280;14965;50.660;13.226;2022-08-19T01:02:17;94350.91;;;17.91;100.00
30110;BME280;14965;50.660;13.226;2022-08-19T01:04:42;94356.47;;;17.85;100.00
30110;BME280;14965;50.660;13.226;2022-08-19T01:07:09;94359.53;;;17.87;100.00
30110;BME280;14965;50.660;13.226;2022-08-19T01:09:35;94356.22;;;17.89;100.00
30110;BME280;14965;50.660;13.226;2022-08-19T01:12:02;94360.81;;;17.92;100.00
30110;BME280;14965;50.660;13.226;2022-08-19T01:14:30;94353.97;;;17.93;100.00
30110;BME280;14965;50.660;13.226;2022-08-19T01:16:56;94353.47;;;17.95;100.00
30110;BME280;14965;50.660;13.226;2022-08-19T01:19:28;94338.22;;;17.96;100.00
30110;BME280;14965;50.660;13.226;2022-08-19T01:22:01;94329.09;;;17.95;100.00
30110;BME280;14965;50.660;13.226;2022-08-19T01:24:29;94324.53;;;17.98;100.00
30110;BME280;14965;50.660;13.226;2022-08-19T01:26:55;94330.16;;;18.03;100.00
30110;BME280;14965;50.660;13.226;2022-08-19T01:29:21;94322.53;;;18.04;100.00
30110;BME280;14965;50.660;13.226;2022-08-19T01:31:47;94321.53;;;18.07;100.00
30110;BME280;14965;50.660;13.226;2022-08-19T01:34:12;94324.31;;;18.07;100.00
30110;BME280;14965;50.660;13.226;2022-08-19T01:36:42;94326.88;;;18.10;100.00
30110;BME280;14965;50.660;13.226;2022-08-19T01:39:12;94325.63;;;18.11;100.00
30110;BME280;14965;50.660;13.226;2022-08-19T01:41:39;94332.72;;;18.12;100.00
30110;BME280;14965;50.660;13.226;2022-08-19T01:44:07;94330.97;;;18.15;100.00
30110;BME280;14965;50.660;13.226;2022-08-19T01:46:34;94331.97;;;18.17;100.00
30110;BME280;14965;50.660;13.226;2022-08-19T01:49:01;94341.13;;;18.18;100.00
30110;BME280;14965;50.660;13.226;2022-08-19T01:51:27;94340.66;;;18.20;100.00
30110;BME280;14965;50.660;13.226;2022-08-19T01:53:53;94329.47;;;18.20;100.00
30110;BME280;14965;50.660;13.226;2022-08-19T01:56:19;94331.75;;;18.21;100.00
30110;BME280;14965;50.660;13.226;2022-08-19T01:58:51;94333.03;;;18.20;100.00
30110;BME280;14965;50.660;13.226;2022-08-19T02:01:19;94332.75;;;18.18;100.00
30110;BME280;14965;50.660;13.226;2022-08-19T02:03:45;94325.63;;;18.17;100.00
30110;BME280;14965;50.660;13.226;2022-08-19T02:06:12;94332.75;;;18.18;100.00
30110;BME280;14965;50.660;13.226;2022-08-19T02:08:39;94333.00;;;18.14;100.00
30110;BME280;14965;50.660;13.226;2022-08-19T02:11:07;94333.25;;;18.16;100.00
30110;BME280;14965;50.660;13.226;2022-08-19T02:13:34;94336.81;;;18.17;100.00
30110;BME280;14965;50.660;13.226;2022-08-19T02:16:02;94331.97;;;18.17;100.00
30110;BME280;14965;50.660;13.226;2022-08-19T02:18:28;94334.00;;;18.17;100.00
30110;BME280;14965;50.660;13.226;2022-08-19T02:20:54;94331.22;;;18.17;100.00
30110;BME280;14965;50.660;13.226;2022-08-19T02:23:19;94333.53;;;18.19;100.00
30110;BME280;14965;50.660;13.226;2022-08-19T02:25:48;94333.53;;;18.19;100.00
30110;BME280;14965;50.660;13.226;2022-08-19T02:28:14;94330.75;;;18.19;100.00
30110;BME280;14965;50.660;13.226;2022-08-19T02:30:41;94343.91;;;18.18;100.00
30110;BME280;14965;50.660;13.226;2022-08-19T02:33:08;94348.50;;;18.15;100.00
30110;BME280;14965;50.660;13.226;2022-08-19T02:35:34;94359.69;;;18.15;100.00
30110;BME280;14965;50.660;13.226;2022-08-19T02:38:00;94358.63;;;18.13;100.00
30110;BME280;14965;50.660;13.226;2022-08-19T02:40:26;94363.47;;;18.12;100.00
30110;BME280;14965;50.660;13.226;2022-08-19T02:42:52;94372.59;;;18.07;100.00
30110;BME280;14965;50.660;13.226;2022-08-19T02:45:18;94373.88;;;18.06;100.00
30110;BME280;14965;50.660;13.226;2022-08-19T02:47:44;94361.94;;;18.06;100.00
30110;BME280;14965;50.660;13.226;2022-08-19T02:50:12;94362.19;;;18.08;100.00
30110;BME280;14965;50.660;13.226;2022-08-19T02:52:38;94364.47;;;18.09;100.00
30110;BME280;14965;50.660;13.226;2022-08-19T02:55:05;94367.53;;;18.11;100.00
30110;BME280;14965;50.660;13.226;2022-08-19T02:57:31;94364.22;;;18.13;100.00
30110;BME280;14965;50.660;13.226;2022-08-19T02:59:58;94368.53;;;18.14;100.00
30110;BME280;14965;50.660;13.226;2022-08-19T03:02:24;94363.47;;;18.12;100.00
30110;BME280;14965;50.660;13.226;2022-08-19T03:04:50;94363.47;;;18.12;100.00
30110;BME280;14965;50.660;13.226;2022-08-19T03:07:18;94360.44;;;18.10;100.00
30110;BME280;14965;50.660;13.226;2022-08-19T03:09:44;94362.69;;;18.06;100.00
30110;BME280;14965;50.660;13.226;2022-08-19T03:12:10;94357.81;;;18.01;100.00
30110;BME280;14965;50.660;13.226;2022-08-19T03:14:37;94350.44;;;17.98;100.00
30110;BME280;14965;50.660;13.226;2022-08-19T03:17:04;94349.41;;;17.96;100.00
30110;BME280;14965;50.660;13.226;2022-08-19T03:19:30;94341.50;;;17.88;100.00
30110;BME280;14965;50.660;13.226;2022-08-19T03:21:56;94347.06;;;17.83;100.00
30110;BME280;14965;50.660;13.226;2022-08-19T03:24:24;94359.50;;;17.82;100.00
30110;BME280;14965;50.660;13.226;2022-08-19T03:26:52;94358.50;;;17.85;100.00
30110;BME280;14965;50.660;13.226;2022-08-19T03:29:19;94363.06;;;17.88;100.00
30110;BME280;14965;50.660;13.226;2022-08-19T03:31:45;94365.63;;;17.91;100.00
30110;BME280;14965;50.660;13.226;2022-08-19T03:34:15;94371.50;;;17.94;100.00
30110;BME280;14965;50.660;13.226;2022-08-19T03:36:41;94368.72;;;17.94;100.00
30110;BME280;14965;50.660;13.226;2022-08-19T03:39:06;94366.94;;;17.96;100.00
30110;BME280;14965;50.660;13.226;2022-08-19T03:41:40;94370.50;;;17.97;100.00
30110;BME280;14965;50.660;13.226;2022-08-19T03:44:06;94366.94;;;17.96;100.00
30110;BME280;14965;50.660;13.226;2022-08-19T03:46:33;94367.22;;;17.98;100.00
30110;BME280;14965;50.660;13.226;2022-08-19T03:49:01;94369.50;;;18.00;100.00
30110;BME280;14965;50.660;13.226;2022-08-19T03:51:31;94366.97;;;18.02;100.00
30110;BME280;14965;50.660;13.226;2022-08-19T03:53:59;94372.31;;;18.05;100.00
30110;BME280;14965;50.660;13.226;2022-08-19T03:56:27;94376.66;;;18.06;100.00
30110;BME280;14965;50.660;13.226;2022-08-19T03:58:55;94370.31;;;18.06;100.00
30110;BME280;14965;50.660;13.226;2022-08-19T04:01:25;94368.75;;;18.05;100.00
30110;BME280;14965;50.660;13.226;2022-08-19T04:03:53;94361.41;;;18.02;100.00
30110;BME280;14965;50.660;13.226;2022-08-19T04:06:21;94362.16;;;18.02;100.00
30110;BME280;14965;50.660;13.226;2022-08-19T04:08:50;94364.19;;;18.02;100.00
30110;BME280;14965;50.660;13.226;2022-08-19T04:11:19;94357.81;;;18.01;100.00
30110;BME280;14965;50.660;13.226;2022-08-19T04:13:45;94357.06;;;18.01;100.00
30110;BME280;14965;50.660;13.226;2022-08-19T04:16:13;94352.22;;;18.01;100.00
30110;BME280;14965;50.660;13.226;2022-08-19T04:18:40;94346.63;;;18.01;100.00
30110;BME280;14965;50.660;13.226;2022-08-19T04:21:08;94339.53;;;18.00;100.00
30110;BME280;14965;50.660;13.226;2022-08-19T04:23:40;94344.34;;;18.00;100.00
30110;BME280;14965;50.660;13.226;2022-08-19T04:26:06;94362.63;;;18.01;100.00
30110;BME280;14965;50.660;13.226;2022-08-19T04:28:32;94359.38;;;18.02;100.00
30110;BME280;14965;50.660;13.226;2022-08-19T04:30:57;94373.09;;;18.06;100.00
30110;BME280;14965;50.660;13.226;2022-08-19T04:33:25;94369.28;;;18.09;100.00
30110;BME280;14965;50.660;13.226;2022-08-19T04:35:52;94368.53;;;18.08;100.00
30110;BME280;14965;50.660;13.226;2022-08-19T04:38:21;94370.06;;;18.09;100.00
30110;BME280;14965;50.660;13.226;2022-08-19T04:40:49;94367.25;;;18.09;100.00
30110;BME280;14965;50.660;13.226;2022-08-19T04:43:15;94360.91;;;18.09;100.00
30110;BME280;14965;50.660;13.226;2022-08-19T04:45:42;94362.44;;;18.10;100.00
30110;BME280;14965;50.660;13.226;2022-08-19T04:48:08;94368.53;;;18.08;100.00
30110;BME280;14965;50.660;13.226;2022-08-19T04:50:35;94369.03;;;18.07;100.00
30110;BME280;14965;50.660;13.226;2022-08-19T04:53:01;94370.31;;;18.06;100.00
30110;BME280;14965;50.660;13.226;2022-08-19T04:55:27;94375.09;;;18.05;100.00
30110;BME280;14965;50.660;13.226;2022-08-19T04:57:54;94368.00;;;18.04;100.00
30110;BME280;14965;50.660;13.226;2022-08-19T05:00:20;94370.25;;;18.00;100.00
30110;BME280;14965;50.660;13.226;2022-08-19T05:02:46;94382.19;;;18.01;100.00
30110;BME280;14965;50.660;13.226;2022-08-19T05:05:11;94373.06;;;18.00;100.00
30110;BME280;14965;50.660;13.226;2022-08-19T05:07:38;94375.59;;;17.98;100.00
30110;BME280;14965;50.660;13.226;2022-08-19T05:10:05;94380.91;;;17.96;100.00
30110;BME280;14965;50.660;13.226;2022-08-19T05:12:32;94384.47;;;17.97;100.00
30110;BME280;14965;50.660;13.226;2022-08-19T05:15:02;94389.56;;;17.98;100.00
30110;BME280;14965;50.660;13.226;2022-08-19T05:17:29;94392.13;;;18.02;100.00
30110;BME280;14965;50.660;13.226;2022-08-19T05:19:56;94389.59;;;18.04;100.00
30110;BME280;14965;50.660;13.226;2022-08-19T05:22:22;94390.63;;;18.06;100.00
30110;BME280;14965;50.660;13.226;2022-08-19T05:24:50;94394.19;;;18.07;100.00
30110;BME280;14965;50.660;13.226;2022-08-19T05:27:15;94391.88;;;18.05;100.00
30110;BME280;14965;50.660;13.226;2022-08-19T05:29:41;94394.66;;;18.05;100.00
30110;BME280;14965;50.660;13.226;2022-08-19T05:32:07;94395.69;;;18.02;100.00
30110;BME280;14965;50.660;13.226;2022-08-19T05:34:33;94406.34;;;18.04;100.00
30110;BME280;14965;50.660;13.226;2022-08-19T05:37:02;94398.72;;;18.04;100.00
30110;BME280;14965;50.660;13.226;2022-08-19T05:39:31;94416.53;;;18.07;100.00
30110;BME280;14965;50.660;13.226;2022-08-19T05:42:02;94426.97;;;18.06;100.00
30110;BME280;14965;50.660;13.226;2022-08-19T05:44:31;94430.50;;;18.07;100.00
30110;BME280;14965;50.660;13.226;2022-08-19T05:46:59;94431.81;;;18.11;100.00
30110;BME280;14965;50.660;13.226;2022-08-19T05:49:27;94438.16;;;18.12;100.00
30110;BME280;14965;50.660;13.226;2022-08-19T05:51:54;94448.06;;;18.13;100.00
30110;BME280;14965;50.660;13.226;2022-08-19T05:54:23;94457.22;;;18.13;100.00
30110;BME280;14965;50.660;13.226;2022-08-19T05:56:50;94467.41;;;18.16;100.00
30110;BME280;14965;50.660;13.226;2022-08-19T05:59:20;94470.97;;;18.17;100.00
30110;BME280;14965;50.660;13.226;2022-08-19T06:01:48;94468.16;;;18.17;100.00
30110;BME280;14965;50.660;13.226;2022-08-19T06:04:14;94478.34;;;18.14;100.00
30110;BME280;14965;50.660;13.226;2022-08-19T06:06:40;94480.84;;;18.12;100.00
30110;BME280;14965;50.660;13.226;2022-08-19T06:09:07;94481.84;;;18.09;100.00
30110;BME280;14965;50.660;13.226;2022-08-19T06:11:36;94492.53;;;18.11;100.00
30110;BME280;14965;50.660;13.226;2022-08-19T06:14:06;94500.41;;;18.12;100.00
30110;BME280;14965;50.660;13.226;2022-08-19T06:16:35;94503.19;;;18.12;100.00
30110;BME280;14965;50.660;13.226;2022-08-19T06:19:04;94514.81;;;18.05;100.00
30110;BME280;14965;50.660;13.226;2022-08-19T06:21:31;94521.66;;;17.99;100.00
30110;BME280;14965;50.660;13.226;2022-08-19T06:23:58;94525.44;;;17.96;100.00
30110;BME280;14965;50.660;13.226;2022-08-19T06:26:24;94514.97;;;17.90;100.00
30110;BME280;14965;50.660;13.226;2022-08-19T06:28:51;94518.97;;;17.84;100.00
30110;BME280;14965;50.660;13.226;2022-08-19T06:31:21;94515.16;;;17.81;100.00
30110;BME280;14965;50.660;13.226;2022-08-19T06:33:49;94507.00;;;17.78;100.00
30110;BME280;14965;50.660;13.226;2022-08-19T06:36:21;94521.97;;;17.80;100.00
30110;BME280;14965;50.660;13.226;2022-08-19T06:38:47;94519.97;;;17.81;100.00
30110;BME280;14965;50.660;13.226;2022-08-19T06:41:13;94524.09;;;17.85;100.00
30110;BME280;14965;50.660;13.226;2022-08-19T06:43:39;94515.97;;;17.87;100.00
30110;BME280;14965;50.660;13.226;2022-08-19T06:46:11;94516.50;;;17.91;100.00
30110;BME280;14965;50.660;13.226;2022-08-19T06:48:38;94507.91;;;17.95;100.00
30110;BME280;14965;50.660;13.226;2022-08-19T06:51:05;94511.75;;;17.98;100.00
30110;BME280;14965;50.660;13.226;2022-08-19T06:53:31;94507.47;;;18.02;100.00
30110;BME280;14965;50.660;13.226;2022-08-19T06:55:57;94515.09;;;18.07;100.00
30110;BME280;14965;50.660;13.226;2022-08-19T06:58:23;94508.78;;;18.12;100.00
30110;BME280;14965;50.660;13.226;2022-08-19T07:00:49;94520.50;;;18.16;100.00
30110;BME280;14965;50.660;13.226;2022-08-19T07:03:15;94521.03;;;18.21;100.00
30110;BME280;14965;50.660;13.226;2022-08-19T07:05:42;94516.75;;;18.25;100.00
30110;BME280;14965;50.660;13.226;2022-08-19T07:08:09;94520.59;;;18.28;100.00
30110;BME280;14965;50.660;13.226;2022-08-19T07:10:35;94521.91;;;18.32;100.00
30110;BME280;14965;50.660;13.226;2022-08-19T07:13:01;94516.56;;;18.34;100.00
30110;BME280;14965;50.660;13.226;2022-08-19T07:15:27;94517.59;;;18.37;100.00
30110;BME280;14965;50.660;13.226;2022-08-19T07:17:53;94522.22;;;18.40;100.00
30110;BME280;14965;50.660;13.226;2022-08-19T07:20:20;94517.63;;;18.42;100.00
30110;BME280;14965;50.660;13.226;2022-08-19T07:22:46;94521.97;;;18.44;100.00
30110;BME280;14965;50.660;13.226;2022-08-19T07:25:14;94527.31;;;18.47;100.00
30110;BME280;14965;50.660;13.226;2022-08-19T07:27:40;94532.16;;;18.47;100.00
30110;BME280;14965;50.660;13.226;2022-08-19T07:30:08;94541.81;;;18.46;100.00
30110;BME280;14965;50.660;13.226;2022-08-19T07:32:34;94539.78;;;18.46;100.00
30110;BME280;14965;50.660;13.226;2022-08-19T07:34:59;94541.28;;;18.47;100.00
30110;BME280;14965;50.660;13.226;2022-08-19T07:37:26;94534.19;;;18.46;100.00
30110;BME280;14965;50.660;13.226;2022-08-19T07:39:51;94540.53;;;18.47;100.00
30110;BME280;14965;50.660;13.226;2022-08-19T07:42:18;94534.47;;;18.48;100.00
30110;BME280;14965;50.660;13.226;2022-08-19T07:44:44;94533.41;;;18.46;100.00
30110;BME280;14965;50.660;13.226;2022-08-19T07:47:10;94538.50;;;18.47;100.00
30110;BME280;14965;50.660;13.226;2022-08-19T07:49:36;94542.13;;;18.53;100.00
30110;BME280;14965;50.660;13.226;2022-08-19T07:52:07;94552.56;;;18.58;100.00
30110;BME280;14965;50.660;13.226;2022-08-19T07:54:37;94553.22;;;18.74;100.00
30110;BME280;14965;50.660;13.226;2022-08-19T07:57:04;94553.75;;;18.83;100.00
30110;BME280;14965;50.660;13.226;2022-08-19T07:59:32;94554.81;;;18.91;100.00
30110;BME280;14965;50.660;13.226;2022-08-19T08:01:58;94553.59;;;18.98;100.00
30110;BME280;14965;50.660;13.226;2022-08-19T08:04:24;94554.91;;;19.08;100.00
30110;BME280;14965;50.660;13.226;2022-08-19T08:06:50;94551.41;;;19.25;100.00
30110;BME280;14965;50.660;13.226;2022-08-19T08:09:22;94549.94;;;19.40;100.00
30110;BME280;14965;50.660;13.226;2022-08-19T08:11:52;94553.78;;;19.49;100.00
30110;BME280;14965;50.660;13.226;2022-08-19T08:14:23;94552.50;;;19.44;100.00
30110;BME280;14965;50.660;13.226;2022-08-19T08:16:51;94553.97;;;19.39;100.00
30110;BME280;14965;50.660;13.226;2022-08-19T08:19:19;94562.66;;;19.41;100.00
30110;BME280;14965;50.660;13.226;2022-08-19T08:21:47;94554.50;;;19.38;100.00
30110;BME280;14965;50.660;13.226;2022-08-19T08:24:14;94565.94;;;19.34;100.00
30110;BME280;14965;50.660;13.226;2022-08-19T08:26:40;94559.56;;;19.34;100.00
30110;BME280;14965;50.660;13.226;2022-08-19T08:29:07;94550.69;;;19.35;100.00
30110;BME280;14965;50.660;13.226;2022-08-19T08:31:32;94561.38;;;19.31;100.00
30110;BME280;14965;50.660;13.226;2022-08-19T08:34:00;94570.75;;;19.28;100.00
30110;BME280;14965;50.660;13.226;2022-08-19T08:36:26;94568.19;;;19.25;100.00
30110;BME280;14965;50.660;13.226;2022-08-19T08:38:52;94564.63;;;19.24;100.00
30110;BME280;14965;50.660;13.226;2022-08-19T08:41:27;94567.75;;;19.37;100.00
30110;BME280;14965;50.660;13.226;2022-08-19T08:43:56;94569.84;;;19.54;100.00
30110;BME280;14965;50.660;13.226;2022-08-19T08:46:29;94564.75;;;19.58;100.00
30110;BME280;14965;50.660;13.226;2022-08-19T08:49:06;94574.47;;;19.62;100.00
30110;BME280;14965;50.660;13.226;2022-08-19T08:51:46;94572.44;;;19.63;100.00
30110;BME280;14965;50.660;13.226;2022-08-19T08:54:18;94568.31;;;19.53;100.00
30110;BME280;14965;50.660;13.226;2022-08-19T08:56:47;94569.06;;;19.53;100.00
30110;BME280;14965;50.660;13.226;2022-08-19T08:59:21;94572.34;;;19.40;100.00
30110;BME280;14965;50.660;13.226;2022-08-19T09:01:49;94569.72;;;19.26;100.00
30110;BME280;14965;50.660;13.226;2022-08-19T09:04:17;94575.31;;;19.26;100.00
30110;BME280;14965;50.660;13.226;2022-08-19T09:06:52;94560.06;;;19.27;100.00
30110;BME280;14965;50.660;13.226;2022-08-19T09:09:29;94563.63;;;19.27;100.00
30110;BME280;14965;50.660;13.226;2022-08-19T09:12:06;94560.56;;;19.20;100.00
30110;BME280;14965;50.660;13.226;2022-08-19T09:14:46;94559.00;;;19.19;100.00
30110;BME280;14965;50.660;13.226;2022-08-19T09:17:14;94553.69;;;19.21;100.00
30110;BME280;14965;50.660;13.226;2022-08-19T09:19:55;94564.34;;;19.16;100.00
30110;BME280;14965;50.660;13.226;2022-08-19T09:22:22;94557.75;;;19.20;100.00
30110;BME280;14965;50.660;13.226;2022-08-19T09:24:48;94551.41;;;19.25;100.00
30110;BME280;14965;50.660;13.226;2022-08-19T09:27:14;94543.53;;;19.29;100.00
30110;BME280;14965;50.660;13.226;2022-08-19T09:29:40;94554.75;;;19.34;100.00
30110;BME280;14965;50.660;13.226;2022-08-19T09:32:06;94551.97;;;19.40;100.00
30110;BME280;14965;50.660;13.226;2022-08-19T09:34:32;94556.03;;;19.39;100.00
30110;BME280;14965;50.660;13.226;2022-08-19T09:36:59;94555.25;;;19.33;100.00
30110;BME280;14965;50.660;13.226;2022-08-19T09:39:25;94559.81;;;19.25;100.00
30110;BME280;14965;50.660;13.226;2022-08-19T09:41:51;94563.34;;;19.20;100.00
30110;BME280;14965;50.660;13.226;2022-08-19T09:44:18;94567.63;;;19.09;100.00
30110;BME280;14965;50.660;13.226;2022-08-19T09:46:44;94566.84;;;19.03;100.00
30110;BME280;14965;50.660;13.226;2022-08-19T09:49:10;94576.00;;;19.04;100.00
30110;BME280;14965;50.660;13.226;2022-08-19T09:51:35;94575.25;;;19.09;100.00
30110;BME280;14965;50.660;13.226;2022-08-19T09:54:04;94572.97;;;19.07;100.00
30110;BME280;14965;50.660;13.226;2022-08-19T09:56:30;94576.31;;;19.17;100.00
30110;BME280;14965;50.660;13.226;2022-08-19T09:58:58;94586.28;;;19.24;100.00
30110;BME280;14965;50.660;13.226;2022-08-19T10:01:27;94576.59;;;19.25;100.00
30110;BME280;14965;50.660;13.226;2022-08-19T10:03:56;94578.63;;;19.24;100.00
30110;BME280;14965;50.660;13.226;2022-08-19T10:06:25;94572.50;;;19.14;100.00
30110;BME280;14965;50.660;13.226;2022-08-19T10:08:52;94572.69;;;19.05;100.00
30110;BME280;14965;50.660;13.226;2022-08-19T10:11:20;94577.50;;;18.99;100.00
30110;BME280;14965;50.660;13.226;2022-08-19T10:13:47;94577.50;;;18.99;100.00
30110;BME280;14965;50.660;13.226;2022-08-19T10:16:17;94574.72;;;18.99;100.00
30110;BME280;14965;50.660;13.226;2022-08-19T10:18:43;94575.00;;;19.07;100.00
30110;BME280;14965;50.660;13.226;2022-08-19T10:21:13;94583.19;;;19.16;100.00
30110;BME280;14965;50.660;13.226;2022-08-19T10:23:43;94584.47;;;19.15;100.00
30110;BME280;14965;50.660;13.226;2022-08-19T10:26:09;94601.47;;;19.11;100.00
30110;BME280;14965;50.660;13.226;2022-08-19T10:28:37;94609.06;;;19.05;100.00
30110;BME280;14965;50.660;13.226;2022-08-19T10:31:05;94609.84;;;19.06;100.00
30110;BME280;14965;50.660;13.226;2022-08-19T10:33:31;94613.16;;;19.04;100.00
30110;BME280;14965;50.660;13.226;2022-08-19T10:36:00;94607.00;;;19.00;100.00
30110;BME280;14965;50.660;13.226;2022-08-19T10:38:26;94597.88;;;19.05;100.00
30110;BME280;14965;50.660;13.226;2022-08-19T10:40:52;94601.72;;;19.13;100.00
30110;BME280;14965;50.660;13.226;2022-08-19T10:43:18;94595.16;;;19.22;100.00
30110;BME280;14965;50.660;13.226;2022-08-19T10:45:52;94582.22;;;19.30;100.00
30110;BME280;14965;50.660;13.226;2022-08-19T10:48:17;94592.94;;;19.43;100.00
30110;BME280;14965;50.660;13.226;2022-08-19T10:50:43;94601.69;;;19.56;100.00
30110;BME280;14965;50.660;13.226;2022-08-19T10:53:09;94608.38;;;19.70;100.00
30110;BME280;14965;50.660;13.226;2022-08-19T10:55:35;94607.13;;;19.88;100.00
30110;BME280;14965;50.660;13.226;2022-08-19T10:58:01;94617.09;;;20.06;100.00
30110;BME280;14965;50.660;13.226;2022-08-19T11:00:27;94625.53;;;20.23;100.00
30110;BME280;14965;50.660;13.226;2022-08-19T11:02:54;94629.88;;;20.29;99.00
30110;BME280;14965;50.660;13.226;2022-08-19T11:05:20;94615.09;;;20.29;98.23
30110;BME280;14965;50.660;13.226;2022-08-19T11:07:46;94613.56;;;20.17;97.48
30110;BME280;14965;50.660;13.226;2022-08-19T11:10:14;94615.56;;;19.99;97.31
30110;BME280;14965;50.660;13.226;2022-08-19T11:12:40;94619.59;;;19.81;97.67
30110;BME280;14965;50.660;13.226;2022-08-19T11:15:09;94611.13;;;19.64;97.90
30110;BME280;14965;50.660;13.226;2022-08-19T11:17:35;94620.50;;;19.50;98.51
30110;BME280;14965;50.660;13.226;2022-08-19T11:20:03;94617.16;;;19.40;99.39
30110;BME280;14965;50.660;13.226;2022-08-19T11:22:29;94616.56;;;19.31;100.00
30110;BME280;14965;50.660;13.226;2022-08-19T11:24:55;94606.34;;;19.22;100.00
30110;BME280;14965;50.660;13.226;2022-08-19T11:27:22;94604.28;;;19.11;100.00
30110;BME280;14965;50.660;13.226;2022-08-19T11:29:53;94601.44;;;19.06;100.00
30110;BME280;14965;50.660;13.226;2022-08-19T11:32:22;94594.81;;;19.03;100.00
30110;BME280;14965;50.660;13.226;2022-08-19T11:34:47;94599.91;;;18.99;100.00
30110;BME280;14965;50.660;13.226;2022-08-19T11:37:15;94602.66;;;18.94;100.00
30110;BME280;14965;50.660;13.226;2022-08-19T11:39:41;94607.72;;;18.89;100.00
30110;BME280;14965;50.660;13.226;2022-08-19T11:42:08;94619.69;;;18.90;100.00
30110;BME280;14965;50.660;13.226;2022-08-19T11:44:33;94615.63;;;18.91;100.00
30110;BME280;14965;50.660;13.226;2022-08-19T11:46:59;94618.94;;;18.89;100.00
30110;BME280;14965;50.660;13.226;2022-08-19T11:49:25;94615.09;;;18.87;100.00
30110;BME280;14965;50.660;13.226;2022-08-19T11:51:51;94629.59;;;18.85;100.00
30110;BME280;14965;50.660;13.226;2022-08-19T11:54:18;94627.81;;;18.88;100.00
30110;BME280;14965;50.660;13.226;2022-08-19T11:56:45;94616.88;;;18.90;100.00
30110;BME280;14965;50.660;13.226;2022-08-19T11:59:11;94620.69;;;18.92;100.00
30110;BME280;14965;50.660;13.226;2022-08-19T12:01:37;94622.50;;;18.96;100.00
30110;BME280;14965;50.660;13.226;2022-08-19T12:04:03;94619.97;;;18.98;100.00
30110;BME280;14965;50.660;13.226;2022-08-19T12:06:32;94616.41;;;18.97;100.00
30110;BME280;14965;50.660;13.226;2022-08-19T12:09:01;94619.19;;;18.97;100.00
30110;BME280;14965;50.660;13.226;2022-08-19T12:11:29;94627.88;;;18.99;100.00
30110;BME280;14965;50.660;13.226;2022-08-19T12:13:55;94617.91;;;18.92;100.00
30110;BME280;14965;50.660;13.226;2022-08-19T12:16:24;94630.59;;;18.88;100.00
30110;BME280;14965;50.660;13.226;2022-08-19T12:18:51;94629.31;;;18.89;100.00
30110;BME280;14965;50.660;13.226;2022-08-19T12:21:21;94633.91;;;18.86;100.00
30110;BME280;14965;50.660;13.226;2022-08-19T12:23:49;94631.34;;;18.83;100.00
30110;BME280;14965;50.660;13.226;2022-08-19T12:26:17;94645.53;;;18.74;100.00
30110;BME280;14965;50.660;13.226;2022-08-19T12:28:44;94640.16;;;18.70;100.00
30110;BME280;14965;50.660;13.226;2022-08-19T12:31:10;94649.03;;;18.69;100.00
30110;BME280;14965;50.660;13.226;2022-08-19T12:33:36;94646.50;;;18.71;100.00
30110;BME280;14965;50.660;13.226;2022-08-19T12:36:06;94653.63;;;18.72;100.00
30110;BME280;14965;50.660;13.226;2022-08-19T12:38:33;94654.13;;;18.70;100.00
30110;BME280;14965;50.660;13.226;2022-08-19T12:41:00;94649.50;;;18.67;100.00